Chase, Canada
Current Conditions -  °F | °C
As of 6:00 PM on Sunday 25 Jan 2015 (Local Time) from CYKA Reporting Station
Few Clouds Few Clouds  
Wind Chill: 35°   Ceiling: Unl
Heat Index: 43°   Visibility: 40mi
Dew Point: 36°   Wind: 16mph
Humidity: 76%   Direction: 130°SE
Pressure: 30.1"   Gusts: 23mph
Location:  50.82°N, 119.68°W
Report Text: CYKA 260200Z 13014G20KT 40SM FEW250 06/02 A3010 RMK CI2 SLP207
Loading
Personal Weather Stations






























Interactive Weather Map New forecast layout! Learn more

10-Day Weather Forecast

Advertisements
Track Severe Weather on mobile